sensor_id;sensor_type;location;lat;lon;timestamp;P1;durP1;ratioP1;P2;durP2;ratioP2
33696;SDS011;20031;43.416;23.232;2023-02-28T00:02:09;35.67;;;22.23;;
33696;SDS011;20031;43.416;23.232;2023-02-28T00:04:34;35.38;;;21.60;;
33696;SDS011;20031;43.416;23.232;2023-02-28T00:07:00;37.42;;;22.75;;
33696;SDS011;20031;43.416;23.232;2023-02-28T00:09:25;36.28;;;22.35;;
33696;SDS011;20031;43.416;23.232;2023-02-28T00:11:51;37.28;;;23.25;;
33696;SDS011;20031;43.416;23.232;2023-02-28T00:14:16;37.30;;;22.20;;
33696;SDS011;20031;43.416;23.232;2023-02-28T00:16:42;38.53;;;22.95;;
33696;SDS011;20031;43.416;23.232;2023-02-28T00:19:07;38.40;;;23.35;;
33696;SDS011;20031;43.416;23.232;2023-02-28T00:21:32;36.45;;;23.25;;
33696;SDS011;20031;43.416;23.232;2023-02-28T00:23:58;40.08;;;23.90;;
33696;SDS011;20031;43.416;23.232;2023-02-28T00:26:23;37.80;;;23.48;;
33696;SDS011;20031;43.416;23.232;2023-02-28T00:28:51;38.80;;;24.15;;
33696;SDS011;20031;43.416;23.232;2023-02-28T00:31:17;38.33;;;23.52;;
33696;SDS011;20031;43.416;23.232;2023-02-28T00:33:43;36.95;;;21.88;;
33696;SDS011;20031;43.416;23.232;2023-02-28T00:36:09;39.22;;;22.20;;
33696;SDS011;20031;43.416;23.232;2023-02-28T00:38:36;35.72;;;22.13;;
33696;SDS011;20031;43.416;23.232;2023-02-28T00:41:02;38.67;;;23.35;;
33696;SDS011;20031;43.416;23.232;2023-02-28T00:43:29;35.97;;;22.48;;
33696;SDS011;20031;43.416;23.232;2023-02-28T00:45:56;38.55;;;22.88;;
33696;SDS011;20031;43.416;23.232;2023-02-28T00:48:21;35.35;;;21.70;;
33696;SDS011;20031;43.416;23.232;2023-02-28T00:50:49;36.20;;;22.88;;
33696;SDS011;20031;43.416;23.232;2023-02-28T00:53:15;34.97;;;22.50;;
33696;SDS011;20031;43.416;23.232;2023-02-28T00:55:40;34.67;;;21.42;;
33696;SDS011;20031;43.416;23.232;2023-02-28T00:58:06;37.05;;;22.65;;
33696;SDS011;20031;43.416;23.232;2023-02-28T01:00:31;37.67;;;22.70;;
33696;SDS011;20031;43.416;23.232;2023-02-28T01:02:57;35.08;;;22.75;;
33696;SDS011;20031;43.416;23.232;2023-02-28T01:05:22;37.95;;;22.55;;
33696;SDS011;20031;43.416;23.232;2023-02-28T01:07:48;37.08;;;22.10;;
33696;SDS011;20031;43.416;23.232;2023-02-28T01:10:13;38.25;;;22.48;;
33696;SDS011;20031;43.416;23.232;2023-02-28T01:12:38;39.78;;;23.48;;
33696;SDS011;20031;43.416;23.232;2023-02-28T01:15:04;37.15;;;23.92;;
33696;SDS011;20031;43.416;23.232;2023-02-28T01:17:30;39.60;;;23.58;;
33696;SDS011;20031;43.416;23.232;2023-02-28T01:19:55;40.42;;;24.45;;
33696;SDS011;20031;43.416;23.232;2023-02-28T01:22:21;38.25;;;23.02;;
33696;SDS011;20031;43.416;23.232;2023-02-28T01:24:47;37.65;;;23.23;;
33696;SDS011;20031;43.416;23.232;2023-02-28T01:27:12;35.28;;;22.73;;
33696;SDS011;20031;43.416;23.232;2023-02-28T01:29:38;35.63;;;23.38;;
33696;SDS011;20031;43.416;23.232;2023-02-28T01:32:03;38.03;;;23.67;;
33696;SDS011;20031;43.416;23.232;2023-02-28T01:34:29;38.75;;;23.23;;
33696;SDS011;20031;43.416;23.232;2023-02-28T01:36:54;38.35;;;23.60;;
33696;SDS011;20031;43.416;23.232;2023-02-28T01:39:20;35.25;;;22.52;;
33696;SDS011;20031;43.416;23.232;2023-02-28T01:41:45;32.15;;;20.85;;
33696;SDS011;20031;43.416;23.232;2023-02-28T01:47:14;34.45;;;21.15;;
33696;SDS011;20031;43.416;23.232;2023-02-28T01:49:40;34.83;;;20.83;;
33696;SDS011;20031;43.416;23.232;2023-02-28T01:52:05;36.17;;;22.17;;
33696;SDS011;20031;43.416;23.232;2023-02-28T01:54:33;34.47;;;21.55;;
33696;SDS011;20031;43.416;23.232;2023-02-28T01:57:18;34.33;;;21.40;;
33696;SDS011;20031;43.416;23.232;2023-02-28T01:59:54;36.42;;;22.73;;
33696;SDS011;20031;43.416;23.232;2023-02-28T02:02:25;35.42;;;21.67;;
33696;SDS011;20031;43.416;23.232;2023-02-28T02:04:56;36.42;;;21.67;;
33696;SDS011;20031;43.416;23.232;2023-02-28T02:07:26;36.38;;;22.40;;
33696;SDS011;20031;43.416;23.232;2023-02-28T02:10:04;36.40;;;22.38;;
33696;SDS011;20031;43.416;23.232;2023-02-28T02:23:33;35.08;;;20.50;;
33696;SDS011;20031;43.416;23.232;2023-02-28T02:40:00;34.53;;;19.63;;
33696;SDS011;20031;43.416;23.232;2023-02-28T02:43:04;35.25;;;21.10;;
33696;SDS011;20031;43.416;23.232;2023-02-28T02:45:40;34.45;;;20.67;;
33696;SDS011;20031;43.416;23.232;2023-02-28T02:48:11;30.88;;;19.55;;
33696;SDS011;20031;43.416;23.232;2023-02-28T02:50:42;33.10;;;20.42;;
33696;SDS011;20031;43.416;23.232;2023-02-28T02:53:12;34.28;;;20.88;;
33696;SDS011;20031;43.416;23.232;2023-02-28T02:55:41;31.65;;;20.23;;
33696;SDS011;20031;43.416;23.232;2023-02-28T02:58:13;31.30;;;20.02;;
33696;SDS011;20031;43.416;23.232;2023-02-28T03:00:41;33.75;;;19.83;;
33696;SDS011;20031;43.416;23.232;2023-02-28T03:03:11;30.35;;;19.13;;
33696;SDS011;20031;43.416;23.232;2023-02-28T03:05:43;29.77;;;18.70;;
33696;SDS011;20031;43.416;23.232;2023-02-28T03:08:12;29.15;;;18.45;;
33696;SDS011;20031;43.416;23.232;2023-02-28T03:10:40;32.15;;;18.67;;
33696;SDS011;20031;43.416;23.232;2023-02-28T03:18:40;28.63;;;17.73;;
33696;SDS011;20031;43.416;23.232;2023-02-28T03:26:55;29.67;;;18.92;;
33696;SDS011;20031;43.416;23.232;2023-02-28T03:29:35;30.58;;;19.05;;
33696;SDS011;20031;43.416;23.232;2023-02-28T03:32:19;28.45;;;18.17;;
33696;SDS011;20031;43.416;23.232;2023-02-28T03:34:53;26.63;;;18.15;;
33696;SDS011;20031;43.416;23.232;2023-02-28T03:37:47;26.67;;;17.60;;
33696;SDS011;20031;43.416;23.232;2023-02-28T03:42:54;31.90;;;19.45;;
33696;SDS011;20031;43.416;23.232;2023-02-28T03:45:26;31.73;;;19.95;;
33696;SDS011;20031;43.416;23.232;2023-02-28T03:48:13;29.80;;;19.17;;
33696;SDS011;20031;43.416;23.232;2023-02-28T03:50:40;34.90;;;19.88;;
33696;SDS011;20031;43.416;23.232;2023-02-28T03:55:39;30.23;;;17.92;;
33696;SDS011;20031;43.416;23.232;2023-02-28T03:58:18;33.13;;;20.52;;
33696;SDS011;20031;43.416;23.232;2023-02-28T04:00:52;33.00;;;20.48;;
33696;SDS011;20031;43.416;23.232;2023-02-28T04:03:24;30.80;;;19.42;;
33696;SDS011;20031;43.416;23.232;2023-02-28T04:05:51;35.45;;;21.77;;
33696;SDS011;20031;43.416;23.232;2023-02-28T04:08:18;29.77;;;19.98;;
33696;SDS011;20031;43.416;23.232;2023-02-28T04:10:44;35.47;;;21.15;;
33696;SDS011;20031;43.416;23.232;2023-02-28T04:13:14;35.05;;;20.98;;
33696;SDS011;20031;43.416;23.232;2023-02-28T04:15:40;33.38;;;20.40;;
33696;SDS011;20031;43.416;23.232;2023-02-28T04:18:06;34.80;;;20.00;;
33696;SDS011;20031;43.416;23.232;2023-02-28T04:20:31;37.70;;;21.83;;
33696;SDS011;20031;43.416;23.232;2023-02-28T04:22:56;37.10;;;21.52;;
33696;SDS011;20031;43.416;23.232;2023-02-28T04:25:22;37.33;;;22.35;;
33696;SDS011;20031;43.416;23.232;2023-02-28T04:27:47;36.78;;;22.98;;
33696;SDS011;20031;43.416;23.232;2023-02-28T04:30:13;36.85;;;21.95;;
33696;SDS011;20031;43.416;23.232;2023-02-28T04:32:38;34.78;;;20.73;;
33696;SDS011;20031;43.416;23.232;2023-02-28T04:35:04;35.45;;;20.88;;
33696;SDS011;20031;43.416;23.232;2023-02-28T04:37:30;31.73;;;19.85;;
33696;SDS011;20031;43.416;23.232;2023-02-28T04:39:59;32.22;;;21.05;;
33696;SDS011;20031;43.416;23.232;2023-02-28T04:42:25;35.67;;;21.30;;
33696;SDS011;20031;43.416;23.232;2023-02-28T04:44:51;38.47;;;22.60;;
33696;SDS011;20031;43.416;23.232;2023-02-28T04:47:17;40.80;;;22.02;;
33696;SDS011;20031;43.416;23.232;2023-02-28T04:49:42;36.25;;;22.17;;
33696;SDS011;20031;43.416;23.232;2023-02-28T04:52:08;36.30;;;21.48;;
33696;SDS011;20031;43.416;23.232;2023-02-28T04:54:34;39.65;;;22.35;;
33696;SDS011;20031;43.416;23.232;2023-02-28T04:57:00;33.60;;;20.58;;
33696;SDS011;20031;43.416;23.232;2023-02-28T04:59:26;58.38;;;35.25;;
33696;SDS011;20031;43.416;23.232;2023-02-28T05:01:52;39.67;;;26.90;;
33696;SDS011;20031;43.416;23.232;2023-02-28T05:04:17;42.08;;;26.75;;
33696;SDS011;20031;43.416;23.232;2023-02-28T05:06:43;33.92;;;20.95;;
33696;SDS011;20031;43.416;23.232;2023-02-28T05:09:09;37.53;;;22.67;;
33696;SDS011;20031;43.416;23.232;2023-02-28T05:11:36;38.65;;;22.52;;
33696;SDS011;20031;43.416;23.232;2023-02-28T05:14:04;41.30;;;24.02;;
33696;SDS011;20031;43.416;23.232;2023-02-28T05:16:31;43.20;;;25.13;;
33696;SDS011;20031;43.416;23.232;2023-02-28T05:18:57;44.13;;;25.45;;
33696;SDS011;20031;43.416;23.232;2023-02-28T05:21:28;46.40;;;26.85;;
33696;SDS011;20031;43.416;23.232;2023-02-28T05:23:55;36.13;;;22.63;;
33696;SDS011;20031;43.416;23.232;2023-02-28T05:26:22;38.72;;;23.10;;
33696;SDS011;20031;43.416;23.232;2023-02-28T05:28:48;36.90;;;23.50;;
33696;SDS011;20031;43.416;23.232;2023-02-28T05:31:14;36.75;;;22.42;;
33696;SDS011;20031;43.416;23.232;2023-02-28T05:33:40;34.97;;;21.90;;
33696;SDS011;20031;43.416;23.232;2023-02-28T05:36:06;30.88;;;19.95;;
33696;SDS011;20031;43.416;23.232;2023-02-28T05:38:32;31.80;;;20.30;;
33696;SDS011;20031;43.416;23.232;2023-02-28T05:40:57;33.88;;;19.88;;
33696;SDS011;20031;43.416;23.232;2023-02-28T05:43:23;35.22;;;20.27;;
33696;SDS011;20031;43.416;23.232;2023-02-28T05:45:49;31.52;;;18.92;;
33696;SDS011;20031;43.416;23.232;2023-02-28T05:48:15;41.78;;;21.08;;
33696;SDS011;20031;43.416;23.232;2023-02-28T05:50:40;29.30;;;18.17;;
33696;SDS011;20031;43.416;23.232;2023-02-28T05:53:07;27.50;;;17.83;;
33696;SDS011;20031;43.416;23.232;2023-02-28T05:55:33;28.73;;;18.15;;
33696;SDS011;20031;43.416;23.232;2023-02-28T05:58:01;25.88;;;16.83;;
33696;SDS011;20031;43.416;23.232;2023-02-28T06:00:26;26.02;;;17.02;;
33696;SDS011;20031;43.416;23.232;2023-02-28T06:02:52;24.60;;;15.68;;
33696;SDS011;20031;43.416;23.232;2023-02-28T06:05:21;22.00;;;14.85;;
33696;SDS011;20031;43.416;23.232;2023-02-28T06:07:47;21.58;;;15.05;;
33696;SDS011;20031;43.416;23.232;2023-02-28T06:10:13;20.75;;;14.50;;
33696;SDS011;20031;43.416;23.232;2023-02-28T06:12:39;22.65;;;14.82;;
33696;SDS011;20031;43.416;23.232;2023-02-28T06:15:06;20.83;;;14.02;;
33696;SDS011;20031;43.416;23.232;2023-02-28T06:17:35;21.50;;;15.13;;
33696;SDS011;20031;43.416;23.232;2023-02-28T06:20:00;23.92;;;16.20;;
33696;SDS011;20031;43.416;23.232;2023-02-28T06:22:26;22.63;;;14.50;;
33696;SDS011;20031;43.416;23.232;2023-02-28T06:24:51;22.30;;;14.25;;
33696;SDS011;20031;43.416;23.232;2023-02-28T06:27:17;23.63;;;15.77;;
33696;SDS011;20031;43.416;23.232;2023-02-28T06:29:44;24.45;;;15.13;;
33696;SDS011;20031;43.416;23.232;2023-02-28T06:32:09;22.17;;;14.93;;
33696;SDS011;20031;43.416;23.232;2023-02-28T06:34:35;23.67;;;15.20;;
33696;SDS011;20031;43.416;23.232;2023-02-28T06:37:01;30.33;;;19.08;;
33696;SDS011;20031;43.416;23.232;2023-02-28T06:39:27;25.40;;;13.55;;
33696;SDS011;20031;43.416;23.232;2023-02-28T06:41:54;22.20;;;14.57;;
33696;SDS011;20031;43.416;23.232;2023-02-28T06:44:19;20.50;;;13.90;;
33696;SDS011;20031;43.416;23.232;2023-02-28T06:46:45;28.55;;;18.65;;
33696;SDS011;20031;43.416;23.232;2023-02-28T06:49:11;28.13;;;19.08;;
33696;SDS011;20031;43.416;23.232;2023-02-28T06:51:37;23.58;;;15.63;;
33696;SDS011;20031;43.416;23.232;2023-02-28T06:54:05;21.67;;;14.70;;
33696;SDS011;20031;43.416;23.232;2023-02-28T06:56:33;20.35;;;13.55;;
33696;SDS011;20031;43.416;23.232;2023-02-28T06:59:00;25.30;;;16.50;;
33696;SDS011;20031;43.416;23.232;2023-02-28T07:01:25;25.33;;;16.02;;
33696;SDS011;20031;43.416;23.232;2023-02-28T07:03:52;21.50;;;14.30;;
33696;SDS011;20031;43.416;23.232;2023-02-28T07:06:19;27.42;;;18.13;;
33696;SDS011;20031;43.416;23.232;2023-02-28T07:08:47;33.42;;;20.48;;
33696;SDS011;20031;43.416;23.232;2023-02-28T07:11:13;24.60;;;15.35;;
33696;SDS011;20031;43.416;23.232;2023-02-28T07:13:39;25.38;;;16.75;;
33696;SDS011;20031;43.416;23.232;2023-02-28T07:16:05;24.55;;;16.65;;
33696;SDS011;20031;43.416;23.232;2023-02-28T07:18:33;29.88;;;17.95;;
33696;SDS011;20031;43.416;23.232;2023-02-28T07:21:01;23.48;;;13.93;;
33696;SDS011;20031;43.416;23.232;2023-02-28T07:23:28;18.85;;;13.70;;
33696;SDS011;20031;43.416;23.232;2023-02-28T07:25:53;20.08;;;12.98;;
33696;SDS011;20031;43.416;23.232;2023-02-28T07:28:19;19.23;;;13.07;;
33696;SDS011;20031;43.416;23.232;2023-02-28T07:30:44;17.65;;;12.35;;
33696;SDS011;20031;43.416;23.232;2023-02-28T07:33:10;19.25;;;11.68;;
33696;SDS011;20031;43.416;23.232;2023-02-28T07:35:35;25.58;;;16.80;;
33696;SDS011;20031;43.416;23.232;2023-02-28T07:38:01;20.02;;;13.35;;
33696;SDS011;20031;43.416;23.232;2023-02-28T07:40:27;17.08;;;11.82;;
33696;SDS011;20031;43.416;23.232;2023-02-28T07:42:53;17.23;;;11.00;;
33696;SDS011;20031;43.416;23.232;2023-02-28T07:45:19;23.65;;;12.38;;
33696;SDS011;20031;43.416;23.232;2023-02-28T07:47:44;19.95;;;12.85;;
33696;SDS011;20031;43.416;23.232;2023-02-28T07:50:11;21.35;;;14.07;;
33696;SDS011;20031;43.416;23.232;2023-02-28T07:52:39;20.95;;;13.43;;
33696;SDS011;20031;43.416;23.232;2023-02-28T07:55:06;17.13;;;11.38;;
33696;SDS011;20031;43.416;23.232;2023-02-28T07:57:32;19.17;;;12.82;;
33696;SDS011;20031;43.416;23.232;2023-02-28T07:59:58;18.98;;;11.88;;
33696;SDS011;20031;43.416;23.232;2023-02-28T08:02:24;16.73;;;11.32;;
33696;SDS011;20031;43.416;23.232;2023-02-28T08:04:50;17.10;;;10.50;;
33696;SDS011;20031;43.416;23.232;2023-02-28T08:07:15;16.40;;;11.02;;
33696;SDS011;20031;43.416;23.232;2023-02-28T08:09:42;16.00;;;10.55;;
33696;SDS011;20031;43.416;23.232;2023-02-28T08:12:08;13.70;;;9.13;;
33696;SDS011;20031;43.416;23.232;2023-02-28T08:14:35;16.38;;;10.25;;
33696;SDS011;20031;43.416;23.232;2023-02-28T08:17:00;14.68;;;9.68;;
33696;SDS011;20031;43.416;23.232;2023-02-28T08:19:26;7.45;;;5.72;;
33696;SDS011;20031;43.416;23.232;2023-02-28T08:21:52;8.23;;;5.75;;
33696;SDS011;20031;43.416;23.232;2023-02-28T08:24:17;11.93;;;7.68;;
33696;SDS011;20031;43.416;23.232;2023-02-28T08:26:43;12.23;;;7.70;;
33696;SDS011;20031;43.416;23.232;2023-02-28T08:29:09;12.05;;;8.35;;
33696;SDS011;20031;43.416;23.232;2023-02-28T08:31:34;9.63;;;6.38;;
33696;SDS011;20031;43.416;23.232;2023-02-28T08:34:04;20.45;;;7.32;;
33696;SDS011;20031;43.416;23.232;2023-02-28T08:36:40;15.30;;;8.35;;
33696;SDS011;20031;43.416;23.232;2023-02-28T08:39:06;11.25;;;6.80;;
33696;SDS011;20031;43.416;23.232;2023-02-28T08:41:32;18.50;;;9.32;;
33696;SDS011;20031;43.416;23.232;2023-02-28T08:43:58;15.55;;;7.75;;
33696;SDS011;20031;43.416;23.232;2023-02-28T08:46:24;15.95;;;7.68;;
33696;SDS011;20031;43.416;23.232;2023-02-28T08:48:53;11.13;;;6.85;;
33696;SDS011;20031;43.416;23.232;2023-02-28T08:51:20;11.40;;;6.60;;
33696;SDS011;20031;43.416;23.232;2023-02-28T08:54:00;13.20;;;6.82;;
33696;SDS011;20031;43.416;23.232;2023-02-28T08:56:26;13.57;;;8.00;;
33696;SDS011;20031;43.416;23.232;2023-02-28T08:58:54;16.25;;;8.05;;
33696;SDS011;20031;43.416;23.232;2023-02-28T09:01:21;12.65;;;8.18;;
33696;SDS011;20031;43.416;23.232;2023-02-28T09:03:49;18.35;;;7.25;;
33696;SDS011;20031;43.416;23.232;2023-02-28T09:06:16;10.07;;;6.47;;
33696;SDS011;20031;43.416;23.232;2023-02-28T09:08:43;92.82;;;52.83;;
33696;SDS011;20031;43.416;23.232;2023-02-28T09:11:09;28.02;;;16.60;;
33696;SDS011;20031;43.416;23.232;2023-02-28T09:13:35;16.45;;;9.48;;
33696;SDS011;20031;43.416;23.232;2023-02-28T09:16:02;13.23;;;8.13;;
33696;SDS011;20031;43.416;23.232;2023-02-28T09:18:29;10.52;;;6.55;;
33696;SDS011;20031;43.416;23.232;2023-02-28T09:20:55;13.13;;;7.35;;
33696;SDS011;20031;43.416;23.232;2023-02-28T09:23:20;10.00;;;6.82;;
33696;SDS011;20031;43.416;23.232;2023-02-28T09:25:50;12.77;;;7.57;;
33696;SDS011;20031;43.416;23.232;2023-02-28T09:28:18;11.38;;;7.15;;
33696;SDS011;20031;43.416;23.232;2023-02-28T09:30:44;10.45;;;7.10;;
33696;SDS011;20031;43.416;23.232;2023-02-28T09:33:11;8.73;;;6.53;;
33696;SDS011;20031;43.416;23.232;2023-02-28T09:35:38;11.50;;;7.07;;
33696;SDS011;20031;43.416;23.232;2023-02-28T09:38:03;12.30;;;8.38;;
33696;SDS011;20031;43.416;23.232;2023-02-28T09:40:30;12.23;;;6.72;;
33696;SDS011;20031;43.416;23.232;2023-02-28T09:42:56;8.65;;;6.15;;
33696;SDS011;20031;43.416;23.232;2023-02-28T09:45:27;10.23;;;6.57;;
33696;SDS011;20031;43.416;23.232;2023-02-28T09:47:56;9.98;;;6.82;;
33696;SDS011;20031;43.416;23.232;2023-02-28T09:50:30;13.48;;;6.97;;
33696;SDS011;20031;43.416;23.232;2023-02-28T09:53:02;91.05;;;39.78;;
33696;SDS011;20031;43.416;23.232;2023-02-28T09:55:50;45.83;;;26.60;;
33696;SDS011;20031;43.416;23.232;2023-02-28T09:58:22;11.52;;;7.15;;
33696;SDS011;20031;43.416;23.232;2023-02-28T10:00:59;14.32;;;7.57;;
33696;SDS011;20031;43.416;23.232;2023-02-28T10:03:52;12.85;;;8.90;;
33696;SDS011;20031;43.416;23.232;2023-02-28T10:06:22;12.70;;;8.60;;
33696;SDS011;20031;43.416;23.232;2023-02-28T10:09:03;11.35;;;7.72;;
33696;SDS011;20031;43.416;23.232;2023-02-28T10:11:38;12.10;;;8.38;;
33696;SDS011;20031;43.416;23.232;2023-02-28T10:16:52;24.48;;;7.53;;
33696;SDS011;20031;43.416;23.232;2023-02-28T10:19:34;47.15;;;18.13;;
33696;SDS011;20031;43.416;23.232;2023-02-28T10:22:17;52.03;;;17.20;;
33696;SDS011;20031;43.416;23.232;2023-02-28T10:24:50;38.60;;;12.95;;
33696;SDS011;20031;43.416;23.232;2023-02-28T10:27:22;36.70;;;12.73;;
33696;SDS011;20031;43.416;23.232;2023-02-28T10:29:50;33.88;;;13.40;;
33696;SDS011;20031;43.416;23.232;2023-02-28T10:32:19;42.15;;;19.52;;
33696;SDS011;20031;43.416;23.232;2023-02-28T10:34:51;38.33;;;16.45;;
33696;SDS011;20031;43.416;23.232;2023-02-28T10:37:20;25.67;;;10.20;;
33696;SDS011;20031;43.416;23.232;2023-02-28T10:39:46;34.05;;;12.32;;
33696;SDS011;20031;43.416;23.232;2023-02-28T10:42:19;19.50;;;8.50;;
33696;SDS011;20031;43.416;23.232;2023-02-28T10:44:55;24.98;;;9.23;;
33696;SDS011;20031;43.416;23.232;2023-02-28T10:47:31;60.40;;;23.35;;
33696;SDS011;20031;43.416;23.232;2023-02-28T10:49:59;33.22;;;14.13;;
33696;SDS011;20031;43.416;23.232;2023-02-28T10:52:37;44.45;;;19.52;;
33696;SDS011;20031;43.416;23.232;2023-02-28T10:58:00;16.45;;;9.05;;
33696;SDS011;20031;43.416;23.232;2023-02-28T11:00:25;16.30;;;9.27;;
33696;SDS011;20031;43.416;23.232;2023-02-28T11:02:58;13.50;;;8.50;;
33696;SDS011;20031;43.416;23.232;2023-02-28T11:05:28;12.90;;;7.68;;
33696;SDS011;20031;43.416;23.232;2023-02-28T11:08:06;10.90;;;6.78;;
33696;SDS011;20031;43.416;23.232;2023-02-28T11:10:38;10.20;;;7.72;;
33696;SDS011;20031;43.416;23.232;2023-02-28T11:13:04;10.68;;;7.47;;
33696;SDS011;20031;43.416;23.232;2023-02-28T11:15:31;12.73;;;7.00;;
33696;SDS011;20031;43.416;23.232;2023-02-28T11:17:59;9.93;;;7.60;;
33696;SDS011;20031;43.416;23.232;2023-02-28T11:20:28;10.75;;;7.75;;
33696;SDS011;20031;43.416;23.232;2023-02-28T11:22:58;10.23;;;7.30;;
33696;SDS011;20031;43.416;23.232;2023-02-28T11:25:26;12.98;;;8.02;;
33696;SDS011;20031;43.416;23.232;2023-02-28T11:28:02;11.10;;;6.63;;
33696;SDS011;20031;43.416;23.232;2023-02-28T11:32:59;11.13;;;7.45;;
33696;SDS011;20031;43.416;23.232;2023-02-28T11:35:29;27.60;;;14.65;;
33696;SDS011;20031;43.416;23.232;2023-02-28T11:37:59;19.75;;;9.48;;
33696;SDS011;20031;43.416;23.232;2023-02-28T11:40:48;20.92;;;12.25;;
33696;SDS011;20031;43.416;23.232;2023-02-28T11:49:02;12.93;;;8.10;;
33696;SDS011;20031;43.416;23.232;2023-02-28T11:52:29;12.25;;;7.72;;
33696;SDS011;20031;43.416;23.232;2023-02-28T11:57:25;13.30;;;8.02;;
33696;SDS011;20031;43.416;23.232;2023-02-28T12:05:45;31.88;;;14.27;;
33696;SDS011;20031;43.416;23.232;2023-02-28T12:22:28;13.38;;;9.43;;
33696;SDS011;20031;43.416;23.232;2023-02-28T12:27:39;17.08;;;9.10;;
33696;SDS011;20031;43.416;23.232;2023-02-28T12:30:14;21.40;;;10.88;;
33696;SDS011;20031;43.416;23.232;2023-02-28T12:32:45;23.42;;;10.20;;
33696;SDS011;20031;43.416;23.232;2023-02-28T12:35:26;11.70;;;7.60;;
33696;SDS011;20031;43.416;23.232;2023-02-28T12:38:41;11.82;;;7.38;;
33696;SDS011;20031;43.416;23.232;2023-02-28T12:40:54;35.92;;;10.40;;
33696;SDS011;20031;43.416;23.232;2023-02-28T12:43:24;16.48;;;8.13;;
33696;SDS011;20031;43.416;23.232;2023-02-28T12:45:56;22.27;;;10.25;;
33696;SDS011;20031;43.416;23.232;2023-02-28T12:48:29;23.40;;;11.63;;
33696;SDS011;20031;43.416;23.232;2023-02-28T12:51:02;14.98;;;8.07;;
33696;SDS011;20031;43.416;23.232;2023-02-28T12:56:30;18.77;;;8.23;;
33696;SDS011;20031;43.416;23.232;2023-02-28T13:06:57;13.73;;;8.18;;
33696;SDS011;20031;43.416;23.232;2023-02-28T13:09:36;27.25;;;10.43;;
33696;SDS011;20031;43.416;23.232;2023-02-28T13:12:12;23.15;;;10.32;;
33696;SDS011;20031;43.416;23.232;2023-02-28T13:14:39;15.75;;;8.43;;
33696;SDS011;20031;43.416;23.232;2023-02-28T13:20:37;23.42;;;10.48;;
33696;SDS011;20031;43.416;23.232;2023-02-28T13:22:52;15.73;;;8.10;;
33696;SDS011;20031;43.416;23.232;2023-02-28T13:27:48;11.98;;;8.27;;
33696;SDS011;20031;43.416;23.232;2023-02-28T13:35:50;37.67;;;11.68;;
33696;SDS011;20031;43.416;23.232;2023-02-28T13:38:41;32.47;;;10.75;;
33696;SDS011;20031;43.416;23.232;2023-02-28T13:46:38;14.85;;;8.45;;
33696;SDS011;20031;43.416;23.232;2023-02-28T13:49:30;15.38;;;7.60;;
33696;SDS011;20031;43.416;23.232;2023-02-28T14:05:34;34.97;;;10.82;;
33696;SDS011;20031;43.416;23.232;2023-02-28T14:08:20;51.03;;;14.80;;
33696;SDS011;20031;43.416;23.232;2023-02-28T14:10:48;28.92;;;11.02;;
33696;SDS011;20031;43.416;23.232;2023-02-28T14:16:09;33.65;;;16.25;;
33696;SDS011;20031;43.416;23.232;2023-02-28T14:18:40;24.23;;;12.13;;
33696;SDS011;20031;43.416;23.232;2023-02-28T14:26:58;20.58;;;12.43;;
33696;SDS011;20031;43.416;23.232;2023-02-28T14:29:39;25.40;;;14.32;;
33696;SDS011;20031;43.416;23.232;2023-02-28T14:38:23;19.23;;;7.88;;
33696;SDS011;20031;43.416;23.232;2023-02-28T14:40:53;17.23;;;7.13;;
33696;SDS011;20031;43.416;23.232;2023-02-28T14:43:23;14.80;;;7.03;;
33696;SDS011;20031;43.416;23.232;2023-02-28T14:45:51;22.48;;;8.90;;
33696;SDS011;20031;43.416;23.232;2023-02-28T14:48:21;25.60;;;9.05;;
33696;SDS011;20031;43.416;23.232;2023-02-28T14:50:49;30.98;;;9.60;;
33696;SDS011;20031;43.416;23.232;2023-02-28T14:53:20;33.88;;;9.60;;
33696;SDS011;20031;43.416;23.232;2023-02-28T14:55:48;30.98;;;10.10;;
33696;SDS011;20031;43.416;23.232;2023-02-28T14:58:33;14.43;;;7.15;;
33696;SDS011;20031;43.416;23.232;2023-02-28T15:01:00;31.85;;;16.55;;
33696;SDS011;20031;43.416;23.232;2023-02-28T15:03:32;43.80;;;13.57;;
33696;SDS011;20031;43.416;23.232;2023-02-28T15:06:14;46.00;;;19.77;;
33696;SDS011;20031;43.416;23.232;2023-02-28T15:08:42;41.85;;;21.23;;
33696;SDS011;20031;43.416;23.232;2023-02-28T15:11:15;23.90;;;14.60;;
33696;SDS011;20031;43.416;23.232;2023-02-28T15:13:48;32.13;;;14.48;;
33696;SDS011;20031;43.416;23.232;2023-02-28T15:19:06;39.08;;;17.58;;
33696;SDS011;20031;43.416;23.232;2023-02-28T15:21:39;18.48;;;8.20;;
33696;SDS011;20031;43.416;23.232;2023-02-28T15:24:30;14.15;;;5.90;;
33696;SDS011;20031;43.416;23.232;2023-02-28T15:27:06;20.63;;;7.70;;
33696;SDS011;20031;43.416;23.232;2023-02-28T15:29:45;14.35;;;5.95;;
33696;SDS011;20031;43.416;23.232;2023-02-28T15:32:32;8.43;;;6.25;;
33696;SDS011;20031;43.416;23.232;2023-02-28T15:34:59;13.10;;;6.50;;
33696;SDS011;20031;43.416;23.232;2023-02-28T15:37:53;9.65;;;6.70;;
33696;SDS011;20031;43.416;23.232;2023-02-28T15:40:29;12.68;;;7.25;;
33696;SDS011;20031;43.416;23.232;2023-02-28T15:42:57;16.45;;;8.40;;
33696;SDS011;20031;43.416;23.232;2023-02-28T15:45:50;10.63;;;6.80;;
33696;SDS011;20031;43.416;23.232;2023-02-28T15:48:29;10.05;;;7.05;;
33696;SDS011;20031;43.416;23.232;2023-02-28T15:53:50;20.17;;;8.77;;
33696;SDS011;20031;43.416;23.232;2023-02-28T15:59:08;15.05;;;7.78;;
33696;SDS011;20031;43.416;23.232;2023-02-28T16:01:44;13.80;;;7.93;;
33696;SDS011;20031;43.416;23.232;2023-02-28T16:04:17;13.95;;;8.27;;
33696;SDS011;20031;43.416;23.232;2023-02-28T16:06:45;13.55;;;7.95;;
33696;SDS011;20031;43.416;23.232;2023-02-28T16:09:12;21.08;;;7.75;;
33696;SDS011;20031;43.416;23.232;2023-02-28T16:11:45;12.52;;;7.28;;
33696;SDS011;20031;43.416;23.232;2023-02-28T16:14:23;10.82;;;6.88;;
33696;SDS011;20031;43.416;23.232;2023-02-28T16:16:53;18.17;;;9.60;;
33696;SDS011;20031;43.416;23.232;2023-02-28T16:19:21;23.45;;;12.10;;
33696;SDS011;20031;43.416;23.232;2023-02-28T16:21:47;28.35;;;16.05;;
33696;SDS011;20031;43.416;23.232;2023-02-28T16:24:13;17.75;;;12.45;;
33696;SDS011;20031;43.416;23.232;2023-02-28T16:26:41;15.98;;;10.57;;
33696;SDS011;20031;43.416;23.232;2023-02-28T16:29:11;14.63;;;9.80;;
33696;SDS011;20031;43.416;23.232;2023-02-28T16:31:42;13.48;;;9.32;;
33696;SDS011;20031;43.416;23.232;2023-02-28T16:34:07;14.40;;;8.27;;
33696;SDS011;20031;43.416;23.232;2023-02-28T16:36:32;13.68;;;9.02;;
33696;SDS011;20031;43.416;23.232;2023-02-28T16:38:58;13.30;;;8.10;;
33696;SDS011;20031;43.416;23.232;2023-02-28T16:41:24;16.02;;;8.25;;
33696;SDS011;20031;43.416;23.232;2023-02-28T16:43:53;13.10;;;7.63;;
33696;SDS011;20031;43.416;23.232;2023-02-28T16:46:24;19.60;;;11.63;;
33696;SDS011;20031;43.416;23.232;2023-02-28T16:48:58;26.27;;;14.57;;
33696;SDS011;20031;43.416;23.232;2023-02-28T16:51:23;19.48;;;11.80;;
33696;SDS011;20031;43.416;23.232;2023-02-28T16:53:49;35.35;;;16.10;;
33696;SDS011;20031;43.416;23.232;2023-02-28T16:56:15;27.10;;;14.35;;